sensor_id;sensor_type;location;lat;lon;timestamp;P1;durP1;ratioP1;P2;durP2;ratioP2
40170;SDS011;37650;52.790;18.268;2023-03-16T00:01:49;34.60;;;19.00;;
40170;SDS011;37650;52.790;18.268;2023-03-16T00:05:10;44.40;;;19.60;;
40170;SDS011;37650;52.790;18.268;2023-03-16T00:08:32;78.80;;;40.70;;
40170;SDS011;37650;52.790;18.268;2023-03-16T00:11:54;50.50;;;22.20;;
40170;SDS011;37650;52.790;18.268;2023-03-16T00:15:15;35.60;;;14.80;;
40170;SDS011;37650;52.790;18.268;2023-03-16T00:18:36;40.00;;;17.30;;
40170;SDS011;37650;52.790;18.268;2023-03-16T00:21:59;43.40;;;20.70;;
40170;SDS011;37650;52.790;18.268;2023-03-16T00:25:20;35.70;;;15.90;;
40170;SDS011;37650;52.790;18.268;2023-03-16T00:28:41;38.30;;;20.40;;
40170;SDS011;37650;52.790;18.268;2023-03-16T00:32:02;46.50;;;24.20;;
40170;SDS011;37650;52.790;18.268;2023-03-16T00:35:21;42.80;;;19.90;;
40170;SDS011;37650;52.790;18.268;2023-03-16T00:38:42;58.90;;;28.70;;
40170;SDS011;37650;52.790;18.268;2023-03-16T00:42:07;38.50;;;19.00;;
40170;SDS011;37650;52.790;18.268;2023-03-16T00:45:29;39.50;;;17.50;;
40170;SDS011;37650;52.790;18.268;2023-03-16T00:48:52;35.70;;;15.40;;
40170;SDS011;37650;52.790;18.268;2023-03-16T00:52:12;35.50;;;17.20;;
40170;SDS011;37650;52.790;18.268;2023-03-16T00:55:33;38.50;;;18.50;;
40170;SDS011;37650;52.790;18.268;2023-03-16T00:58:54;43.20;;;19.40;;
40170;SDS011;37650;52.790;18.268;2023-03-16T01:02:17;36.50;;;18.80;;
40170;SDS011;37650;52.790;18.268;2023-03-16T01:05:42;39.40;;;15.90;;
40170;SDS011;37650;52.790;18.268;2023-03-16T01:09:03;49.90;;;26.10;;
40170;SDS011;37650;52.790;18.268;2023-03-16T01:12:24;46.20;;;25.70;;
40170;SDS011;37650;52.790;18.268;2023-03-16T01:15:45;67.20;;;31.20;;
40170;SDS011;37650;52.790;18.268;2023-03-16T01:19:05;46.40;;;24.60;;
40170;SDS011;37650;52.790;18.268;2023-03-16T01:22:26;51.20;;;25.40;;
40170;SDS011;37650;52.790;18.268;2023-03-16T01:25:48;56.80;;;27.00;;
40170;SDS011;37650;52.790;18.268;2023-03-16T01:29:13;44.70;;;22.40;;
40170;SDS011;37650;52.790;18.268;2023-03-16T01:32:34;27.80;;;14.60;;
40170;SDS011;37650;52.790;18.268;2023-03-16T01:35:57;27.20;;;13.20;;
40170;SDS011;37650;52.790;18.268;2023-03-16T01:39:30;20.30;;;9.60;;
40170;SDS011;37650;52.790;18.268;2023-03-16T01:42:58;20.00;;;11.00;;
40170;SDS011;37650;52.790;18.268;2023-03-16T01:46:26;19.60;;;9.50;;
40170;SDS011;37650;52.790;18.268;2023-03-16T01:49:50;22.00;;;10.20;;
40170;SDS011;37650;52.790;18.268;2023-03-16T01:53:17;24.10;;;11.20;;
40170;SDS011;37650;52.790;18.268;2023-03-16T01:56:44;16.30;;;8.70;;
40170;SDS011;37650;52.790;18.268;2023-03-16T02:00:25;20.80;;;9.30;;
40170;SDS011;37650;52.790;18.268;2023-03-16T02:08:12;13.90;;;7.10;;
40170;SDS011;37650;52.790;18.268;2023-03-16T02:11:33;20.30;;;7.80;;
40170;SDS011;37650;52.790;18.268;2023-03-16T02:14:59;18.50;;;7.90;;
40170;SDS011;37650;52.790;18.268;2023-03-16T02:18:19;14.40;;;6.50;;
40170;SDS011;37650;52.790;18.268;2023-03-16T02:25:15;13.60;;;7.30;;
40170;SDS011;37650;52.790;18.268;2023-03-16T02:32:17;14.40;;;6.80;;
40170;SDS011;37650;52.790;18.268;2023-03-16T02:39:01;16.10;;;6.70;;
40170;SDS011;37650;52.790;18.268;2023-03-16T02:42:24;13.10;;;6.10;;
40170;SDS011;37650;52.790;18.268;2023-03-16T02:45:52;11.80;;;6.40;;
40170;SDS011;37650;52.790;18.268;2023-03-16T02:49:25;19.80;;;7.80;;
40170;SDS011;37650;52.790;18.268;2023-03-16T02:52:50;15.40;;;6.00;;
40170;SDS011;37650;52.790;18.268;2023-03-16T02:56:12;10.20;;;6.00;;
40170;SDS011;37650;52.790;18.268;2023-03-16T02:59:33;16.40;;;6.10;;
40170;SDS011;37650;52.790;18.268;2023-03-16T03:02:54;13.40;;;6.30;;
40170;SDS011;37650;52.790;18.268;2023-03-16T03:06:14;9.60;;;5.60;;
40170;SDS011;37650;52.790;18.268;2023-03-16T03:09:35;14.60;;;7.30;;
40170;SDS011;37650;52.790;18.268;2023-03-16T03:12:56;16.10;;;10.30;;
40170;SDS011;37650;52.790;18.268;2023-03-16T03:16:17;16.20;;;7.60;;
40170;SDS011;37650;52.790;18.268;2023-03-16T03:19:37;20.30;;;8.60;;
40170;SDS011;37650;52.790;18.268;2023-03-16T03:22:58;13.30;;;7.70;;
40170;SDS011;37650;52.790;18.268;2023-03-16T03:26:19;12.50;;;7.00;;
40170;SDS011;37650;52.790;18.268;2023-03-16T03:29:41;19.40;;;8.70;;
40170;SDS011;37650;52.790;18.268;2023-03-16T03:33:04;29.50;;;16.70;;
40170;SDS011;37650;52.790;18.268;2023-03-16T03:36:24;19.80;;;11.50;;
40170;SDS011;37650;52.790;18.268;2023-03-16T03:39:44;21.10;;;10.00;;
40170;SDS011;37650;52.790;18.268;2023-03-16T03:43:05;13.70;;;8.30;;
40170;SDS011;37650;52.790;18.268;2023-03-16T03:46:28;13.70;;;8.30;;
40170;SDS011;37650;52.790;18.268;2023-03-16T03:49:50;15.00;;;8.60;;
40170;SDS011;37650;52.790;18.268;2023-03-16T03:53:10;20.60;;;11.10;;
40170;SDS011;37650;52.790;18.268;2023-03-16T03:56:44;28.60;;;16.50;;
40170;SDS011;37650;52.790;18.268;2023-03-16T04:00:08;18.00;;;9.10;;
40170;SDS011;37650;52.790;18.268;2023-03-16T04:03:36;18.60;;;9.70;;
40170;SDS011;37650;52.790;18.268;2023-03-16T04:06:57;18.80;;;8.60;;
40170;SDS011;37650;52.790;18.268;2023-03-16T04:10:17;23.80;;;11.80;;
40170;SDS011;37650;52.790;18.268;2023-03-16T04:13:37;24.20;;;11.40;;
40170;SDS011;37650;52.790;18.268;2023-03-16T04:16:58;19.60;;;8.90;;
40170;SDS011;37650;52.790;18.268;2023-03-16T04:20:20;18.00;;;7.60;;
40170;SDS011;37650;52.790;18.268;2023-03-16T04:23:41;19.80;;;8.30;;
40170;SDS011;37650;52.790;18.268;2023-03-16T04:27:03;18.80;;;8.50;;
40170;SDS011;37650;52.790;18.268;2023-03-16T04:30:24;21.70;;;12.90;;
40170;SDS011;37650;52.790;18.268;2023-03-16T04:33:58;24.50;;;11.80;;
40170;SDS011;37650;52.790;18.268;2023-03-16T04:37:18;23.70;;;10.60;;
40170;SDS011;37650;52.790;18.268;2023-03-16T04:40:39;25.10;;;9.30;;
40170;SDS011;37650;52.790;18.268;2023-03-16T04:44:04;19.20;;;9.00;;
40170;SDS011;37650;52.790;18.268;2023-03-16T04:47:28;19.10;;;8.50;;
40170;SDS011;37650;52.790;18.268;2023-03-16T04:50:49;24.50;;;9.80;;
40170;SDS011;37650;52.790;18.268;2023-03-16T04:54:10;16.50;;;9.30;;
40170;SDS011;37650;52.790;18.268;2023-03-16T04:57:33;18.30;;;7.90;;
40170;SDS011;37650;52.790;18.268;2023-03-16T05:00:54;13.70;;;7.30;;
40170;SDS011;37650;52.790;18.268;2023-03-16T05:04:18;17.70;;;7.00;;
40170;SDS011;37650;52.790;18.268;2023-03-16T05:07:42;15.70;;;6.80;;
40170;SDS011;37650;52.790;18.268;2023-03-16T05:11:03;14.70;;;8.10;;
40170;SDS011;37650;52.790;18.268;2023-03-16T05:14:27;14.20;;;7.20;;
40170;SDS011;37650;52.790;18.268;2023-03-16T05:21:20;13.90;;;6.30;;
40170;SDS011;37650;52.790;18.268;2023-03-16T05:24:49;14.10;;;6.80;;
40170;SDS011;37650;52.790;18.268;2023-03-16T05:28:10;16.80;;;8.50;;
40170;SDS011;37650;52.790;18.268;2023-03-16T05:31:42;14.70;;;7.90;;
40170;SDS011;37650;52.790;18.268;2023-03-16T05:35:08;12.40;;;5.60;;
40170;SDS011;37650;52.790;18.268;2023-03-16T05:38:32;11.60;;;5.80;;
40170;SDS011;37650;52.790;18.268;2023-03-16T05:41:56;15.10;;;7.00;;
40170;SDS011;37650;52.790;18.268;2023-03-16T05:45:25;10.70;;;6.30;;
40170;SDS011;37650;52.790;18.268;2023-03-16T05:48:56;16.20;;;6.70;;
40170;SDS011;37650;52.790;18.268;2023-03-16T05:52:17;11.40;;;5.70;;
40170;SDS011;37650;52.790;18.268;2023-03-16T05:55:39;14.40;;;6.80;;
40170;SDS011;37650;52.790;18.268;2023-03-16T05:59:02;14.40;;;6.20;;
40170;SDS011;37650;52.790;18.268;2023-03-16T06:02:23;26.10;;;9.00;;
40170;SDS011;37650;52.790;18.268;2023-03-16T06:05:45;16.00;;;7.30;;
40170;SDS011;37650;52.790;18.268;2023-03-16T06:09:09;16.20;;;7.70;;
40170;SDS011;37650;52.790;18.268;2023-03-16T06:12:30;17.60;;;6.90;;
40170;SDS011;37650;52.790;18.268;2023-03-16T06:15:51;14.20;;;6.40;;
40170;SDS011;37650;52.790;18.268;2023-03-16T06:19:12;13.60;;;6.90;;
40170;SDS011;37650;52.790;18.268;2023-03-16T06:22:33;16.90;;;7.00;;
40170;SDS011;37650;52.790;18.268;2023-03-16T06:25:53;14.20;;;5.70;;
40170;SDS011;37650;52.790;18.268;2023-03-16T06:29:15;12.50;;;6.10;;
40170;SDS011;37650;52.790;18.268;2023-03-16T06:32:35;15.80;;;6.50;;
40170;SDS011;37650;52.790;18.268;2023-03-16T06:35:56;16.00;;;6.90;;
40170;SDS011;37650;52.790;18.268;2023-03-16T06:39:23;13.80;;;5.90;;
40170;SDS011;37650;52.790;18.268;2023-03-16T06:46:48;15.80;;;5.90;;
40170;SDS011;37650;52.790;18.268;2023-03-16T06:50:10;12.30;;;5.10;;
40170;SDS011;37650;52.790;18.268;2023-03-16T06:53:32;14.00;;;5.20;;
40170;SDS011;37650;52.790;18.268;2023-03-16T06:56:52;11.50;;;5.50;;
40170;SDS011;37650;52.790;18.268;2023-03-16T07:00:13;9.80;;;5.00;;
40170;SDS011;37650;52.790;18.268;2023-03-16T07:03:34;12.90;;;5.50;;
40170;SDS011;37650;52.790;18.268;2023-03-16T07:07:09;12.60;;;5.20;;
40170;SDS011;37650;52.790;18.268;2023-03-16T07:10:31;12.70;;;4.40;;
40170;SDS011;37650;52.790;18.268;2023-03-16T07:13:53;14.50;;;4.70;;
40170;SDS011;37650;52.790;18.268;2023-03-16T07:17:14;11.70;;;4.50;;
40170;SDS011;37650;52.790;18.268;2023-03-16T07:20:34;12.20;;;4.90;;
40170;SDS011;37650;52.790;18.268;2023-03-16T07:23:58;12.40;;;4.30;;
40170;SDS011;37650;52.790;18.268;2023-03-16T07:27:25;9.20;;;3.70;;
40170;SDS011;37650;52.790;18.268;2023-03-16T07:30:46;8.60;;;4.00;;
40170;SDS011;37650;52.790;18.268;2023-03-16T07:34:07;9.20;;;4.80;;
40170;SDS011;37650;52.790;18.268;2023-03-16T07:37:34;8.00;;;4.20;;
40170;SDS011;37650;52.790;18.268;2023-03-16T07:40:58;9.20;;;4.10;;
40170;SDS011;37650;52.790;18.268;2023-03-16T07:44:19;9.40;;;3.20;;
40170;SDS011;37650;52.790;18.268;2023-03-16T07:47:41;9.30;;;3.50;;
40170;SDS011;37650;52.790;18.268;2023-03-16T07:51:07;9.50;;;4.00;;
40170;SDS011;37650;52.790;18.268;2023-03-16T07:54:28;7.30;;;3.20;;
40170;SDS011;37650;52.790;18.268;2023-03-16T07:57:49;7.90;;;3.50;;
40170;SDS011;37650;52.790;18.268;2023-03-16T08:01:13;8.20;;;3.00;;
40170;SDS011;37650;52.790;18.268;2023-03-16T08:04:33;9.50;;;4.00;;
40170;SDS011;37650;52.790;18.268;2023-03-16T08:07:55;12.60;;;3.80;;
40170;SDS011;37650;52.790;18.268;2023-03-16T08:11:18;12.50;;;5.00;;
40170;SDS011;37650;52.790;18.268;2023-03-16T08:14:47;13.40;;;4.20;;
40170;SDS011;37650;52.790;18.268;2023-03-16T08:18:17;9.90;;;3.70;;
40170;SDS011;37650;52.790;18.268;2023-03-16T08:21:39;10.60;;;4.10;;
40170;SDS011;37650;52.790;18.268;2023-03-16T08:25:00;12.00;;;4.50;;
40170;SDS011;37650;52.790;18.268;2023-03-16T08:28:22;12.30;;;4.20;;
40170;SDS011;37650;52.790;18.268;2023-03-16T08:31:45;11.70;;;4.10;;
40170;SDS011;37650;52.790;18.268;2023-03-16T08:35:13;11.60;;;4.40;;
40170;SDS011;37650;52.790;18.268;2023-03-16T08:42:00;11.30;;;3.70;;
40170;SDS011;37650;52.790;18.268;2023-03-16T08:45:33;10.40;;;4.20;;
40170;SDS011;37650;52.790;18.268;2023-03-16T08:48:53;12.00;;;4.10;;
40170;SDS011;37650;52.790;18.268;2023-03-16T08:52:17;8.60;;;4.50;;
40170;SDS011;37650;52.790;18.268;2023-03-16T08:55:38;11.90;;;4.30;;
40170;SDS011;37650;52.790;18.268;2023-03-16T08:59:03;10.60;;;5.10;;
40170;SDS011;37650;52.790;18.268;2023-03-16T09:02:24;13.80;;;6.70;;
40170;SDS011;37650;52.790;18.268;2023-03-16T09:05:46;9.30;;;4.20;;
40170;SDS011;37650;52.790;18.268;2023-03-16T09:09:06;10.50;;;4.90;;
40170;SDS011;37650;52.790;18.268;2023-03-16T09:12:28;16.70;;;11.20;;
40170;SDS011;37650;52.790;18.268;2023-03-16T09:15:49;11.00;;;5.90;;
40170;SDS011;37650;52.790;18.268;2023-03-16T09:19:10;13.40;;;6.90;;
40170;SDS011;37650;52.790;18.268;2023-03-16T09:22:31;13.30;;;5.60;;
40170;SDS011;37650;52.790;18.268;2023-03-16T09:25:52;12.60;;;4.50;;
40170;SDS011;37650;52.790;18.268;2023-03-16T09:29:16;12.50;;;4.30;;
40170;SDS011;37650;52.790;18.268;2023-03-16T09:32:38;11.10;;;3.10;;
40170;SDS011;37650;52.790;18.268;2023-03-16T09:35:58;10.50;;;4.00;;
40170;SDS011;37650;52.790;18.268;2023-03-16T09:39:20;9.50;;;3.30;;
40170;SDS011;37650;52.790;18.268;2023-03-16T09:42:44;7.50;;;2.90;;
40170;SDS011;37650;52.790;18.268;2023-03-16T09:46:23;13.70;;;4.50;;
40170;SDS011;37650;52.790;18.268;2023-03-16T09:49:51;12.00;;;4.00;;
40170;SDS011;37650;52.790;18.268;2023-03-16T09:56:48;7.50;;;3.10;;
40170;SDS011;37650;52.790;18.268;2023-03-16T10:00:16;9.50;;;3.70;;
40170;SDS011;37650;52.790;18.268;2023-03-16T10:11:43;9.30;;;3.60;;
40170;SDS011;37650;52.790;18.268;2023-03-16T10:15:16;8.20;;;4.30;;
40170;SDS011;37650;52.790;18.268;2023-03-16T10:18:43;12.80;;;4.20;;
40170;SDS011;37650;52.790;18.268;2023-03-16T10:22:24;8.00;;;3.60;;
40170;SDS011;37650;52.790;18.268;2023-03-16T10:25:47;12.60;;;5.50;;
40170;SDS011;37650;52.790;18.268;2023-03-16T10:29:11;8.80;;;4.30;;
40170;SDS011;37650;52.790;18.268;2023-03-16T10:32:33;9.20;;;3.80;;
40170;SDS011;37650;52.790;18.268;2023-03-16T10:36:03;10.50;;;3.80;;
40170;SDS011;37650;52.790;18.268;2023-03-16T10:39:24;10.90;;;4.70;;
40170;SDS011;37650;52.790;18.268;2023-03-16T10:42:45;8.80;;;3.30;;
40170;SDS011;37650;52.790;18.268;2023-03-16T10:46:08;8.10;;;3.40;;
40170;SDS011;37650;52.790;18.268;2023-03-16T10:53:01;11.90;;;6.30;;
40170;SDS011;37650;52.790;18.268;2023-03-16T10:56:23;11.20;;;5.10;;
40170;SDS011;37650;52.790;18.268;2023-03-16T10:59:54;12.40;;;5.20;;
40170;SDS011;37650;52.790;18.268;2023-03-16T11:03:27;13.80;;;5.50;;
40170;SDS011;37650;52.790;18.268;2023-03-16T11:06:55;8.00;;;3.10;;
40170;SDS011;37650;52.790;18.268;2023-03-16T11:10:30;3.50;;;1.80;;
40170;SDS011;37650;52.790;18.268;2023-03-16T11:13:54;24.20;;;11.40;;
40170;SDS011;37650;52.790;18.268;2023-03-16T11:17:18;16.70;;;7.90;;
40170;SDS011;37650;52.790;18.268;2023-03-16T11:20:44;9.80;;;4.80;;
40170;SDS011;37650;52.790;18.268;2023-03-16T11:24:13;8.80;;;3.40;;
40170;SDS011;37650;52.790;18.268;2023-03-16T11:31:51;19.40;;;8.80;;
40170;SDS011;37650;52.790;18.268;2023-03-16T11:35:27;9.60;;;3.80;;
40170;SDS011;37650;52.790;18.268;2023-03-16T11:39:05;7.50;;;3.40;;
40170;SDS011;37650;52.790;18.268;2023-03-16T11:42:37;8.40;;;4.30;;
40170;SDS011;37650;52.790;18.268;2023-03-16T11:46:13;12.90;;;5.30;;
40170;SDS011;37650;52.790;18.268;2023-03-16T11:53:26;19.40;;;8.70;;
40170;SDS011;37650;52.790;18.268;2023-03-16T11:56:53;33.20;;;21.00;;
40170;SDS011;37650;52.790;18.268;2023-03-16T12:04:22;9.10;;;4.20;;
40170;SDS011;37650;52.790;18.268;2023-03-16T12:19:00;9.30;;;4.80;;
40170;SDS011;37650;52.790;18.268;2023-03-16T12:22:27;9.10;;;4.70;;
40170;SDS011;37650;52.790;18.268;2023-03-16T12:25:52;7.30;;;3.70;;
40170;SDS011;37650;52.790;18.268;2023-03-16T12:36:52;6.50;;;2.90;;
40170;SDS011;37650;52.790;18.268;2023-03-16T12:43:54;6.90;;;2.60;;
40170;SDS011;37650;52.790;18.268;2023-03-16T12:51:35;6.90;;;2.70;;
40170;SDS011;37650;52.790;18.268;2023-03-16T12:55:11;8.50;;;2.80;;
40170;SDS011;37650;52.790;18.268;2023-03-16T12:58:34;7.80;;;4.10;;
40170;SDS011;37650;52.790;18.268;2023-03-16T13:01:56;7.20;;;3.70;;
40170;SDS011;37650;52.790;18.268;2023-03-16T13:05:17;5.10;;;2.20;;
40170;SDS011;37650;52.790;18.268;2023-03-16T13:08:54;7.30;;;3.20;;
40170;SDS011;37650;52.790;18.268;2023-03-16T13:12:21;8.10;;;3.40;;
40170;SDS011;37650;52.790;18.268;2023-03-16T13:15:44;6.80;;;3.50;;
40170;SDS011;37650;52.790;18.268;2023-03-16T13:19:16;7.70;;;3.20;;
40170;SDS011;37650;52.790;18.268;2023-03-16T13:22:48;9.80;;;3.70;;
40170;SDS011;37650;52.790;18.268;2023-03-16T13:26:37;6.30;;;2.50;;
40170;SDS011;37650;52.790;18.268;2023-03-16T13:30:01;4.10;;;1.70;;
40170;SDS011;37650;52.790;18.268;2023-03-16T13:33:34;4.20;;;1.70;;
40170;SDS011;37650;52.790;18.268;2023-03-16T13:36:56;4.00;;;2.20;;
40170;SDS011;37650;52.790;18.268;2023-03-16T13:40:19;4.10;;;1.90;;
40170;SDS011;37650;52.790;18.268;2023-03-16T13:43:46;4.70;;;2.00;;
40170;SDS011;37650;52.790;18.268;2023-03-16T13:47:06;5.40;;;3.50;;
40170;SDS011;37650;52.790;18.268;2023-03-16T13:50:30;6.10;;;3.10;;
40170;SDS011;37650;52.790;18.268;2023-03-16T13:53:52;9.10;;;3.50;;
40170;SDS011;37650;52.790;18.268;2023-03-16T13:57:19;6.50;;;4.10;;
40170;SDS011;37650;52.790;18.268;2023-03-16T14:00:42;6.10;;;3.30;;
40170;SDS011;37650;52.790;18.268;2023-03-16T14:07:35;7.10;;;2.90;;
40170;SDS011;37650;52.790;18.268;2023-03-16T14:10:57;4.90;;;2.50;;
40170;SDS011;37650;52.790;18.268;2023-03-16T14:14:26;5.40;;;2.10;;
40170;SDS011;37650;52.790;18.268;2023-03-16T14:18:09;6.90;;;3.10;;
40170;SDS011;37650;52.790;18.268;2023-03-16T14:21:41;4.70;;;1.80;;
40170;SDS011;37650;52.790;18.268;2023-03-16T14:25:09;4.50;;;2.40;;
40170;SDS011;37650;52.790;18.268;2023-03-16T14:29:22;3.70;;;1.90;;
40170;SDS011;37650;52.790;18.268;2023-03-16T14:32:53;5.00;;;2.90;;
40170;SDS011;37650;52.790;18.268;2023-03-16T14:36:21;3.70;;;1.30;;
40170;SDS011;37650;52.790;18.268;2023-03-16T14:39:41;6.70;;;3.40;;
40170;SDS011;37650;52.790;18.268;2023-03-16T14:43:03;7.10;;;3.20;;
40170;SDS011;37650;52.790;18.268;2023-03-16T14:49:50;6.50;;;3.00;;
40170;SDS011;37650;52.790;18.268;2023-03-16T14:53:12;5.20;;;2.30;;
40170;SDS011;37650;52.790;18.268;2023-03-16T14:56:33;8.80;;;5.10;;
40170;SDS011;37650;52.790;18.268;2023-03-16T14:59:54;6.60;;;2.50;;
40170;SDS011;37650;52.790;18.268;2023-03-16T15:03:14;7.40;;;3.20;;
40170;SDS011;37650;52.790;18.268;2023-03-16T15:06:36;13.50;;;6.10;;
40170;SDS011;37650;52.790;18.268;2023-03-16T15:10:05;7.00;;;3.30;;
40170;SDS011;37650;52.790;18.268;2023-03-16T15:13:36;9.00;;;4.30;;
40170;SDS011;37650;52.790;18.268;2023-03-16T15:17:02;7.20;;;3.60;;
40170;SDS011;37650;52.790;18.268;2023-03-16T15:20:28;8.80;;;5.40;;
40170;SDS011;37650;52.790;18.268;2023-03-16T15:23:53;9.60;;;5.00;;
40170;SDS011;37650;52.790;18.268;2023-03-16T15:27:21;7.10;;;3.70;;
40170;SDS011;37650;52.790;18.268;2023-03-16T15:30:45;6.70;;;3.20;;
40170;SDS011;37650;52.790;18.268;2023-03-16T15:34:13;9.40;;;4.90;;
40170;SDS011;37650;52.790;18.268;2023-03-16T15:37:35;7.20;;;3.70;;
40170;SDS011;37650;52.790;18.268;2023-03-16T15:40:55;6.40;;;4.10;;
40170;SDS011;37650;52.790;18.268;2023-03-16T15:44:17;12.10;;;5.10;;
40170;SDS011;37650;52.790;18.268;2023-03-16T15:47:37;12.50;;;7.20;;
40170;SDS011;37650;52.790;18.268;2023-03-16T15:50:59;13.00;;;7.00;;
40170;SDS011;37650;52.790;18.268;2023-03-16T15:54:22;12.80;;;6.60;;
40170;SDS011;37650;52.790;18.268;2023-03-16T15:57:43;10.70;;;5.70;;
40170;SDS011;37650;52.790;18.268;2023-03-16T16:01:04;11.00;;;4.50;;
40170;SDS011;37650;52.790;18.268;2023-03-16T16:04:27;6.90;;;3.70;;
40170;SDS011;37650;52.790;18.268;2023-03-16T16:07:48;10.00;;;5.10;;
40170;SDS011;37650;52.790;18.268;2023-03-16T16:11:14;12.10;;;6.20;;
40170;SDS011;37650;52.790;18.268;2023-03-16T16:14:37;12.70;;;6.50;;
40170;SDS011;37650;52.790;18.268;2023-03-16T16:17:58;11.80;;;7.00;;
40170;SDS011;37650;52.790;18.268;2023-03-16T16:21:24;15.20;;;8.20;;
40170;SDS011;37650;52.790;18.268;2023-03-16T16:24:50;14.90;;;9.40;;
40170;SDS011;37650;52.790;18.268;2023-03-16T16:28:15;14.10;;;8.20;;
40170;SDS011;37650;52.790;18.268;2023-03-16T16:31:42;12.70;;;7.40;;
40170;SDS011;37650;52.790;18.268;2023-03-16T16:35:10;17.50;;;8.70;;
40170;SDS011;37650;52.790;18.268;2023-03-16T16:38:32;17.30;;;8.40;;
40170;SDS011;37650;52.790;18.268;2023-03-16T16:41:53;18.60;;;8.90;;
40170;SDS011;37650;52.790;18.268;2023-03-16T16:45:19;18.90;;;9.80;;
40170;SDS011;37650;52.790;18.268;2023-03-16T16:48:43;19.50;;;9.60;;
40170;SDS011;37650;52.790;18.268;2023-03-16T16:52:10;16.20;;;9.40;;
40170;SDS011;37650;52.790;18.268;2023-03-16T16:55:35;18.00;;;9.40;;
40170;SDS011;37650;52.790;18.268;2023-03-16T16:58:57;15.40;;;8.60;;
40170;SDS011;37650;52.790;18.268;2023-03-16T17:02:31;19.00;;;9.10;;
40170;SDS011;37650;52.790;18.268;2023-03-16T17:06:02;18.20;;;11.20;;
40170;SDS011;37650;52.790;18.268;2023-03-16T17:09:24;23.00;;;11.60;;
40170;SDS011;37650;52.790;18.268;2023-03-16T17:12:46;21.10;;;12.50;;
40170;SDS011;37650;52.790;18.268;2023-03-16T17:16:08;24.10;;;15.30;;
40170;SDS011;37650;52.790;18.268;2023-03-16T17:19:35;41.90;;;22.90;;
40170;SDS011;37650;52.790;18.268;2023-03-16T17:22:56;34.60;;;19.40;;
40170;SDS011;37650;52.790;18.268;2023-03-16T17:26:24;30.00;;;16.40;;
40170;SDS011;37650;52.790;18.268;2023-03-16T17:29:51;23.10;;;14.20;;
40170;SDS011;37650;52.790;18.268;2023-03-16T17:33:13;23.20;;;11.30;;
40170;SDS011;37650;52.790;18.268;2023-03-16T17:36:38;23.20;;;12.50;;
40170;SDS011;37650;52.790;18.268;2023-03-16T17:39:59;30.60;;;13.40;;
40170;SDS011;37650;52.790;18.268;2023-03-16T17:43:21;32.40;;;17.20;;
40170;SDS011;37650;52.790;18.268;2023-03-16T17:46:43;77.40;;;30.30;;
40170;SDS011;37650;52.790;18.268;2023-03-16T17:50:13;48.00;;;20.30;;
40170;SDS011;37650;52.790;18.268;2023-03-16T17:53:45;41.30;;;20.50;;
40170;SDS011;37650;52.790;18.268;2023-03-16T17:57:11;37.20;;;20.70;;
40170;SDS011;37650;52.790;18.268;2023-03-16T18:00:37;40.70;;;21.60;;
40170;SDS011;37650;52.790;18.268;2023-03-16T18:04:20;34.30;;;18.90;;
40170;SDS011;37650;52.790;18.268;2023-03-16T18:07:43;31.70;;;17.50;;
40170;SDS011;37650;52.790;18.268;2023-03-16T18:11:09;30.60;;;17.10;;
40170;SDS011;37650;52.790;18.268;2023-03-16T18:14:40;29.90;;;15.40;;
40170;SDS011;37650;52.790;18.268;2023-03-16T18:18:03;29.50;;;14.80;;
40170;SDS011;37650;52.790;18.268;2023-03-16T18:21:28;24.30;;;14.90;;
40170;SDS011;37650;52.790;18.268;2023-03-16T18:24:53;39.50;;;23.70;;
40170;SDS011;37650;52.790;18.268;2023-03-16T18:28:18;74.00;;;30.80;;
40170;SDS011;37650;52.790;18.268;2023-03-16T18:31:44;95.80;;;41.90;;
40170;SDS011;37650;52.790;18.268;2023-03-16T18:35:14;92.70;;;40.10;;
40170;SDS011;37650;52.790;18.268;2023-03-16T18:38:38;81.40;;;37.50;;
40170;SDS011;37650;52.790;18.268;2023-03-16T18:42:05;82.10;;;36.70;;
40170;SDS011;37650;52.790;18.268;2023-03-16T18:45:32;81.90;;;37.30;;
40170;SDS011;37650;52.790;18.268;2023-03-16T18:49:02;86.30;;;40.40;;
40170;SDS011;37650;52.790;18.268;2023-03-16T18:52:32;101.30;;;48.40;;
40170;SDS011;37650;52.790;18.268;2023-03-16T18:56:00;88.60;;;45.10;;
40170;SDS011;37650;52.790;18.268;2023-03-16T19:02:47;142.80;;;63.50;;
40170;SDS011;37650;52.790;18.268;2023-03-16T19:06:23;104.40;;;51.10;;
40170;SDS011;37650;52.790;18.268;2023-03-16T19:09:49;90.50;;;49.20;;
40170;SDS011;37650;52.790;18.268;2023-03-16T19:13:15;109.70;;;52.20;;
40170;SDS011;37650;52.790;18.268;2023-03-16T19:16:42;322.30;;;132.90;;
40170;SDS011;37650;52.790;18.268;2023-03-16T19:20:05;263.50;;;106.80;;
40170;SDS011;37650;52.790;18.268;2023-03-16T19:23:34;207.00;;;84.60;;
40170;SDS011;37650;52.790;18.268;2023-03-16T19:27:01;363.30;;;126.20;;
40170;SDS011;37650;52.790;18.268;2023-03-16T19:33:48;355.60;;;126.90;;
40170;SDS011;37650;52.790;18.268;2023-03-16T19:37:13;309.30;;;121.90;;
40170;SDS011;37650;52.790;18.268;2023-03-16T19:40:37;233.80;;;102.00;;
40170;SDS011;37650;52.790;18.268;2023-03-16T19:44:00;229.20;;;95.20;;
40170;SDS011;37650;52.790;18.268;2023-03-16T19:47:42;184.50;;;78.70;;
40170;SDS011;37650;52.790;18.268;2023-03-16T19:51:09;155.50;;;68.70;;
40170;SDS011;37650;52.790;18.268;2023-03-16T19:54:34;149.80;;;69.30;;
40170;SDS011;37650;52.790;18.268;2023-03-16T19:57:59;137.10;;;64.00;;
40170;SDS011;37650;52.790;18.268;2023-03-16T20:01:27;116.40;;;58.10;;
40170;SDS011;37650;52.790;18.268;2023-03-16T20:04:53;114.80;;;55.80;;
40170;SDS011;37650;52.790;18.268;2023-03-16T20:08:25;134.60;;;59.00;;
40170;SDS011;37650;52.790;18.268;2023-03-16T20:11:48;180.00;;;75.60;;
40170;SDS011;37650;52.790;18.268;2023-03-16T20:15:12;348.60;;;130.40;;
40170;SDS011;37650;52.790;18.268;2023-03-16T20:18:40;246.50;;;101.80;;
40170;SDS011;37650;52.790;18.268;2023-03-16T20:22:08;233.20;;;97.70;;
40170;SDS011;37650;52.790;18.268;2023-03-16T20:25:40;288.00;;;123.40;;
40170;SDS011;37650;52.790;18.268;2023-03-16T20:29:04;311.90;;;134.30;;
40170;SDS011;37650;52.790;18.268;2023-03-16T20:32:36;292.70;;;135.20;;
40170;SDS011;37650;52.790;18.268;2023-03-16T20:35:59;287.70;;;126.10;;
40170;SDS011;37650;52.790;18.268;2023-03-16T20:39:20;255.80;;;119.00;;
40170;SDS011;37650;52.790;18.268;2023-03-16T20:42:42;280.50;;;122.20;;
40170;SDS011;37650;52.790;18.268;2023-03-16T20:46:05;391.90;;;148.40;;
40170;SDS011;37650;52.790;18.268;2023-03-16T20:49:30;357.00;;;157.70;;
40170;SDS011;37650;52.790;18.268;2023-03-16T20:52:56;388.20;;;142.70;;
40170;SDS011;37650;52.790;18.268;2023-03-16T20:56:19;325.80;;;121.90;;
40170;SDS011;37650;52.790;18.268;2023-03-16T20:59:43;255.10;;;106.40;;
40170;SDS011;37650;52.790;18.268;2023-03-16T21:03:20;181.00;;;84.60;;
40170;SDS011;37650;52.790;18.268;2023-03-16T21:10:03;197.90;;;89.30;;
40170;SDS011;37650;52.790;18.268;2023-03-16T21:13:28;172.90;;;80.90;;
40170;SDS011;37650;52.790;18.268;2023-03-16T21:16:52;146.00;;;68.30;;
40170;SDS011;37650;52.790;18.268;2023-03-16T21:20:17;162.90;;;73.50;;
40170;SDS011;37650;52.790;18.268;2023-03-16T21:23:40;152.30;;;70.60;;
40170;SDS011;37650;52.790;18.268;2023-03-16T21:33:48;172.50;;;78.40;;
40170;SDS011;37650;52.790;18.268;2023-03-16T21:37:13;165.30;;;71.50;;